Ulsteinvik  Ulsteinvik


Beaufortskalaen  Beaufortskalaen


Clouds and precipitation  Clouds and precipitation


varsel for Snø/Is more information rain snow radar


Snø/Is Fra: 01-04-2020 13:00 Til: 02-04-2020 23:00 Advarsel for: Snø/Is Nivå: Gult info button

Nære METAR rapporter

   
ENAL - Ålesund
oppdatert: 01-04-2020 23:20
Overskyet  
Overskyet  
   Vind: SV 8.7 m/s
Vind: SV 8.7 m/s
Temperatur: 4°C
Wind Chill: -1°C
Duggpunkt: 0°C
Fuktighet: 75%
Barometer: 995 hPa
Skyer: Overskyet
Sikt: More than 10 km
Skydetaljer: For det meste skyet 1950.7 m,
Overskyet 2377.4 m
ENAL 012120Z AUTO 22017KT 9999 BKN064/// OVC078/// 04/M00 Q0995
ENOV - Ørsta
oppdatert: 01-04-2020 23:20
Regn i nærheten, For det meste skyet  
Regn i nærheten, For det meste skyet  
   Vind: SSV 4.1 m/s
Vind: SSV 4.1 m/s
Temperatur: 3°C
Wind Chill: -1°C
Duggpunkt: -3°C
Fuktighet: 65%
Barometer: 998 hPa
Skyer: For det meste skyet
Sikt: More than 10 km
Skydetaljer: få skyer 609.6 m,
Delvis Skyet 1371.6 m,
For det meste skyet 1554.5 m
ENOV 012120Z 20008KT 120V280 9999 VCSH FEW020 SCT045 BKN051 03/M03 Q0998 RMK WIND 2175FT 23015KT
ENML - Tafjorden
oppdatert: 01-04-2020 23:20
Spredte Regnbyger, Nedbør, For det meste skyet  
Spredte Regnbyger, Nedbør, For det meste skyet  
   Vind: VEST 13.9 m/s
Vind: VEST 13.9 m/s
Temperatur: 3°C
Wind Chill: -4°C
Duggpunkt: -2°C
Fuktighet: 70%
Barometer: 995 hPa
Skyer: For det meste skyet
Sikt: 10 km
Skydetaljer: Delvis Skyet 1219.2 m,
For det meste skyet 2011.7 m
ENML 012120Z AUTO 26027KT 9999NDV -SHRA SCT040/// BKN066/// 03/M02 Q0995
ENML - Molde
oppdatert: 01-04-2020 23:20
Spredte Regnbyger, Nedbør, For det meste skyet  
Spredte Regnbyger, Nedbør, For det meste skyet  
   Vind: VEST 13.9 m/s
Vind: VEST 13.9 m/s
Temperatur: 3°C
Wind Chill: -4°C
Duggpunkt: -2°C
Fuktighet: 70%
Barometer: 995 hPa
Skyer: For det meste skyet
Sikt: 10 km
Skydetaljer: Delvis Skyet 1219.2 m,
For det meste skyet 2011.7 m
ENML 012120Z AUTO 26027KT 9999NDV -SHRA SCT040/// BKN066/// 03/M02 Q0995
ENFL - Florø
oppdatert: 01-04-2020 23:20
Spredte Regnbyger, Nedbør, For det meste skyet  
Spredte Regnbyger, Nedbør, For det meste skyet  
   Vind: VSV 2.6 m/s
Vind: VSV 2.6 m/s
Temperatur: 4°C
Wind Chill: 2°C
Duggpunkt: -1°C
Fuktighet: 70%
Barometer: 999 hPa
Skyer: For det meste skyet
Sikt: More than 10 km
Skydetaljer: Delvis Skyet 670.6 m,
For det meste skyet 1371.6 m
ENFL 012120Z 24005KT 170V310 9999 -SHRA SCT022TCU BKN045 04/M01 Q0999
ENVA - Trondheim
oppdatert: 01-04-2020 23:20
Lett yr, For det meste skyet  
Lett yr, For det meste skyet  
   Vind: VSV 6.2 m/s
Vind: VSV 6.2 m/s
Temperatur: 3°C
Wind Chill: -2°C
Duggpunkt: 0°C
Fuktighet: 81%
Barometer: 991 hPa
Skyer: For det meste skyet
Sikt: More than 10 km
Skydetaljer: få skyer 579.1 m,
For det meste skyet 792.5 m
ENVA 012120Z 24012KT 9999 -DZ FEW019 BKN026 03/00 Q0991 RMK WIND 670FT 25015KT
ENBR - Bergen
oppdatert: 01-04-2020 23:20
Delvis Skyet  
Delvis Skyet  
   Vind: VEST 3.1 m/s
Vind: VEST 3.1 m/s
Temperatur: 5°C
Wind Chill: 2°C
Duggpunkt: 3°C
Fuktighet: 87%
Barometer: 1002 hPa
Skyer: Delvis Skyet
Sikt: More than 10 km
Skydetaljer: få skyer 457.2 m,
Delvis Skyet 762 m
ENBR 012120Z 26006KT 9999 FEW015TCU SCT025 05/03 Q1002 RMK WIND 1200FT 28011KT
ENZV - Stavanger
oppdatert: 01-04-2020 23:20
Delvis Skyet  
Delvis Skyet  
   Vind: VEST 6.7 m/s
Vind: VEST 6.7 m/s
Temperatur: 6°C
Wind Chill: 2°C
Duggpunkt: 3°C
Fuktighet: 81%
Barometer: 1005 hPa
Skyer: Delvis Skyet
Sikt: More than 10 km
Skydetaljer: få skyer 670.6 m,
Delvis Skyet 1676.4 m
ENZV 012120Z 27013KT 9999 FEW022 SCT055 06/03 Q1005
ENGM - Oslo
oppdatert: 01-04-2020 23:20
Klart  
Klart  
   Vind: SV 3.1 m/s
Vind: SV 3.1 m/s
Temperatur: 5°C
Wind Chill: 2°C
Duggpunkt: -4°C
Fuktighet: 53%
Barometer: 995 hPa
Sikt: More than 10 km
Skydetaljer: Klart
ENGM 012120Z 22006KT CAVOK 05/M04 Q0995
ESSA - Stockholm
oppdatert: 01-04-2020 23:20
få skyer  
få skyer  
   Vind: SV 5.1 m/s
Vind: SV 5.1 m/s
Temperatur: 5°C
Wind Chill: 1°C
Duggpunkt: -1°C
Fuktighet: 66%
Barometer: 994 hPa
Skyer: få skyer
Sikt: More than 10 km
Skydetaljer: få skyer 1463 m
ESSA 012120Z 22010KT 9999 FEW048 05/M01 Q0994 R01L/09//95 R01R/09//95 R08/09//95 NOSIG
EKCH - København
oppdatert: 01-04-2020 23:20
Lett yr, For det meste skyet  
Lett yr, For det meste skyet  
   Vind: VEST 7.2 m/s
Vind: VEST 7.2 m/s
Temperatur: 6°C
Wind Chill: 2°C
Duggpunkt: 3°C
Fuktighet: 81%
Barometer: 1009 hPa
Skyer: For det meste skyet
Sikt: More than 10 km
Skydetaljer: For det meste skyet 579.1 m
EKCH 012120Z AUTO 26014KT 9999 -DZ BKN019/// 06/03 Q1009 NOSIG
ENHV - Nordkapp
oppdatert: 01-04-2020 21:50
Ikkje oppdatert
Delvis Skyet  
Delvis Skyet  
   Vind: ØSØ 5.7 m/s
Vind: ØSØ 5.7 m/s
Temperatur: -2°C
Wind Chill: -8°C
Duggpunkt: -10°C
Fuktighet: 55%
Barometer: 995 hPa
Skyer: Delvis Skyet
Sikt: More than 10 km
Skydetaljer: Delvis Skyet 914.4 m
ENHV 011950Z 12011KT 9999 SCT030 M02/M10 Q0995
ENSB - Svalbard
oppdatert: 01-04-2020 22:50
For det meste skyet  
For det meste skyet  
   Vind: VNV 7.7 m/s
Vind: VNV 7.7 m/s
Temperatur: -15°C
Wind Chill: -26°C
Duggpunkt: -21°C
Fuktighet: 60%
Barometer: 997 hPa
Skyer: For det meste skyet
Sikt: More than 10 km
Skydetaljer: få skyer 1219.2 m,
Delvis Skyet 1828.8 m,
For det meste skyet 3657.6 m
ENSB 012050Z 30015KT 9999 FEW040 SCT060 BKN120 M15/M21 Q0997 RMK WIND 1400FT 30013KT
NZSP - Sørpolen
oppdatert: 01-04-2020 19:50
Ikkje oppdatert
Dis, For det meste skyet  
Dis, For det meste skyet  
   Vind: Øst 5.1 m/s
Vind: Øst 5.1 m/s
Temperatur: -61°C
Wind Chill: -82°C
Barometer: 963.1 hPa
Skyer: For det meste skyet
Sikt: 4.8 km
Skydetaljer: For det meste skyet 1828.8 m
NZSP 011750Z 09010KT 4800 BR BKN060 M61/ A2844 RMK CLN AIR 10001KT ALL WNDS GRID
 

Script utviklet av  Saratoga-weather.org Tilrettelagt for malen av  Weerstation Leuven

Utstyr vi bruker:

Værstsjon
Davis VP2+ 24/H Fars, Online-Ups, 4G Backup.

Værprogram
Weather Display

Ekstra utstyr
Custom builds pcs

Provider
Hosted By Pro Isp

Davis VP2+ 24/H Fars, Online-Ups, 4G Backup.

Weather Display

Custom builds pcs

Hosted By Pro Isp